SBI7013 UNNT-UNTT
Flight info
| Callsign | SBI7013 |
|---|---|
| Flight time | 0h 32m |
| Altitude | 25000 |
| Route | DIMID G828 NN |
| Aircraft | A320/M-SDE3FGHIRWY/LB1 |
Departure
| Time | 2026-05-07 07:26 |
|---|---|
| Airport | Novosibirsk Tolmachevo Airport (UNNT) |
Arrival
| Time | 2026-05-07 07:58 |
|---|---|
| Airport | Tomsk Kamov Airport (UNTT) |
| Time | Latitude | Longitude | Altitude | Speed | Heading |
|---|---|---|---|---|---|
| 2026-05-07 07:22 | 55.01068 | 82.66329 | 373 ft | 0 kts | 171° |
| 2026-05-07 07:24 | 55.01062 | 82.66331 | 373 ft | 3 kts | 171° |
| 2026-05-07 07:24 | 55.01026 | 82.66358 | 373 ft | 8 kts | 123° |
| 2026-05-07 07:24 | 55.01043 | 82.66479 | 373 ft | 13 kts | 66° |
| 2026-05-07 07:24 | 55.01094 | 82.66645 | 373 ft | 17 kts | 32° |
| 2026-05-07 07:25 | 55.01363 | 82.66589 | 374 ft | 13 kts | 333° |
| 2026-05-07 07:25 | 55.01367 | 82.66419 | 374 ft | 19 kts | 261° |
| 2026-05-07 07:25 | 55.01317 | 82.65853 | 373 ft | 82 kts | 261° |
| 2026-05-07 07:26 | 55.01193 | 82.64505 | 372 ft | 141 kts | 261° |
| 2026-05-07 07:26 | 55.01012 | 82.62591 | 604 ft | 168 kts | 259° |
| 2026-05-07 07:26 | 55.00830 | 82.60573 | 1351 ft | 170 kts | 261° |
| 2026-05-07 07:26 | 55.00641 | 82.58482 | 1977 ft | 183 kts | 261° |
| 2026-05-07 07:27 | 55.00432 | 82.56154 | 2419 ft | 205 kts | 260° |
| 2026-05-07 07:27 | 55.00236 | 82.53649 | 3214 ft | 216 kts | 269° |
| 2026-05-07 07:27 | 55.00691 | 82.51052 | 3682 ft | 241 kts | 303° |
| 2026-05-07 07:27 | 55.01860 | 82.48793 | 4298 ft | 259 kts | 317° |
| 2026-05-07 07:28 | 55.03254 | 82.46742 | 5238 ft | 265 kts | 320° |
| 2026-05-07 07:28 | 55.04700 | 82.44724 | 6187 ft | 268 kts | 320° |
| 2026-05-07 07:28 | 55.06150 | 82.42645 | 7105 ft | 271 kts | 319° |
| 2026-05-07 07:28 | 55.07589 | 82.40486 | 7991 ft | 274 kts | 318° |
| 2026-05-07 07:29 | 55.09020 | 82.38255 | 8869 ft | 277 kts | 317° |
| 2026-05-07 07:29 | 55.10453 | 82.35971 | 9754 ft | 280 kts | 316° |
| 2026-05-07 07:29 | 55.11899 | 82.33628 | 10396 ft | 292 kts | 316° |
| 2026-05-07 07:29 | 55.13442 | 82.31110 | 10678 ft | 315 kts | 316° |
| 2026-05-07 07:30 | 55.15101 | 82.28389 | 10904 ft | 338 kts | 316° |
| 2026-05-07 07:30 | 55.16849 | 82.25508 | 11376 ft | 350 kts | 316° |
| 2026-05-07 07:30 | 55.18659 | 82.22529 | 12092 ft | 355 kts | 316° |
| 2026-05-07 07:30 | 55.20540 | 82.19797 | 12816 ft | 359 kts | 326° |
| 2026-05-07 07:31 | 55.22842 | 82.17877 | 13556 ft | 366 kts | 341° |
| 2026-05-07 07:31 | 55.25329 | 82.17073 | 14225 ft | 372 kts | 353° |
| 2026-05-07 07:31 | 55.27949 | 82.16659 | 14870 ft | 375 kts | 352° |
| 2026-05-07 07:31 | 55.30567 | 82.16239 | 15509 ft | 379 kts | 352° |
| 2026-05-07 07:32 | 55.33195 | 82.15813 | 16145 ft | 382 kts | 353° |
| 2026-05-07 07:32 | 55.35866 | 82.16008 | 16734 ft | 390 kts | 9° |
| 2026-05-07 07:32 | 55.38431 | 82.17657 | 17321 ft | 398 kts | 27° |
| 2026-05-07 07:32 | 55.40627 | 82.20688 | 17888 ft | 407 kts | 45° |
| 2026-05-07 07:33 | 55.42200 | 82.24868 | 18442 ft | 415 kts | 65° |
| 2026-05-07 07:33 | 55.43035 | 82.29763 | 18938 ft | 420 kts | 76° |
| 2026-05-07 07:33 | 55.43693 | 82.34796 | 19441 ft | 423 kts | 76° |
| 2026-05-07 07:33 | 55.44342 | 82.39874 | 19935 ft | 427 kts | 76° |
| 2026-05-07 07:34 | 55.44988 | 82.44993 | 20412 ft | 430 kts | 76° |
| 2026-05-07 07:34 | 55.45642 | 82.50150 | 20899 ft | 433 kts | 76° |
| 2026-05-07 07:34 | 55.46533 | 82.55214 | 21365 ft | 433 kts | 64° |
| 2026-05-07 07:34 | 55.48059 | 82.59775 | 21815 ft | 432 kts | 50° |
| 2026-05-07 07:35 | 55.50133 | 82.63583 | 22279 ft | 430 kts | 36° |
| 2026-05-07 07:35 | 55.52633 | 82.66435 | 22733 ft | 428 kts | 22° |
| 2026-05-07 07:35 | 55.55421 | 82.68188 | 23171 ft | 425 kts | 9° |
| 2026-05-07 07:35 | 55.58336 | 82.68793 | 23610 ft | 422 kts | 358° |
| 2026-05-07 07:36 | 55.61290 | 82.68886 | 23968 ft | 425 kts | 358° |
| 2026-05-07 07:36 | 55.64246 | 82.68974 | 24358 ft | 427 kts | 357° |
| 2026-05-07 07:36 | 55.67228 | 82.69062 | 24742 ft | 429 kts | 357° |
| 2026-05-07 07:36 | 55.70249 | 82.69153 | 25010 ft | 430 kts | 357° |
| 2026-05-07 07:37 | 55.73257 | 82.69246 | 25071 ft | 437 kts | 357° |
| 2026-05-07 07:37 | 55.76333 | 82.69340 | 25074 ft | 447 kts | 357° |
| 2026-05-07 07:37 | 55.79444 | 82.69438 | 25072 ft | 457 kts | 357° |
| 2026-05-07 07:37 | 55.82695 | 82.69534 | 25070 ft | 465 kts | 358° |
| 2026-05-07 07:38 | 55.85946 | 82.69631 | 25065 ft | 469 kts | 358° |
| 2026-05-07 07:38 | 55.88103 | 82.69699 | 25064 ft | 469 kts | 358° |
| 2026-05-07 07:38 | 55.91371 | 82.69807 | 25065 ft | 470 kts | 358° |
| 2026-05-07 07:38 | 55.94641 | 82.69922 | 25063 ft | 470 kts | 358° |
| 2026-05-07 07:39 | 55.97912 | 82.70127 | 25059 ft | 472 kts | 2° |
| 2026-05-07 07:39 | 56.01130 | 82.71451 | 25060 ft | 480 kts | 17° |
| 2026-05-07 07:39 | 56.04100 | 82.74236 | 25061 ft | 487 kts | 32° |
| 2026-05-07 07:39 | 56.06604 | 82.78366 | 25058 ft | 495 kts | 47° |
| 2026-05-07 07:40 | 56.08450 | 82.83586 | 25052 ft | 501 kts | 63° |
| 2026-05-07 07:40 | 56.09525 | 82.89532 | 25051 ft | 504 kts | 74° |
| 2026-05-07 07:40 | 56.10339 | 82.95642 | 25047 ft | 504 kts | 75° |
| 2026-05-07 07:40 | 56.11131 | 83.01768 | 25041 ft | 505 kts | 75° |
| 2026-05-07 07:41 | 56.11907 | 83.07904 | 25042 ft | 505 kts | 75° |
| 2026-05-07 07:41 | 56.12676 | 83.14042 | 25043 ft | 502 kts | 75° |
| 2026-05-07 07:41 | 56.13433 | 83.20113 | 25055 ft | 486 kts | 75° |
| 2026-05-07 07:41 | 56.14154 | 83.25908 | 25056 ft | 481 kts | 75° |
| 2026-05-07 07:42 | 56.14887 | 83.31812 | 25052 ft | 479 kts | 75° |
| 2026-05-07 07:42 | 56.15618 | 83.37650 | 25051 ft | 478 kts | 75° |
| 2026-05-07 07:42 | 56.16373 | 83.43445 | 25053 ft | 478 kts | 74° |
| 2026-05-07 07:42 | 56.17153 | 83.49254 | 25057 ft | 478 kts | 74° |
| 2026-05-07 07:43 | 56.17937 | 83.55037 | 24958 ft | 478 kts | 73° |
| 2026-05-07 07:43 | 56.18722 | 83.60831 | 24092 ft | 477 kts | 74° |
| 2026-05-07 07:43 | 56.19484 | 83.66553 | 23166 ft | 464 kts | 74° |
| 2026-05-07 07:43 | 56.20209 | 83.72087 | 22405 ft | 446 kts | 74° |
| 2026-05-07 07:44 | 56.20904 | 83.77439 | 21691 ft | 438 kts | 74° |
| 2026-05-07 07:44 | 56.21593 | 83.82757 | 20976 ft | 437 kts | 74° |
| 2026-05-07 07:44 | 56.22279 | 83.88064 | 20288 ft | 435 kts | 74° |
| 2026-05-07 07:44 | 56.22957 | 83.93360 | 19615 ft | 434 kts | 74° |
| 2026-05-07 07:45 | 56.23636 | 83.98657 | 18962 ft | 439 kts | 74° |
| 2026-05-07 07:45 | 56.24381 | 84.03981 | 18321 ft | 438 kts | 72° |
| 2026-05-07 07:45 | 56.25212 | 84.09236 | 17669 ft | 435 kts | 71° |
| 2026-05-07 07:45 | 56.26087 | 84.14421 | 17078 ft | 431 kts | 70° |
| 2026-05-07 07:46 | 56.26971 | 84.19552 | 16519 ft | 428 kts | 70° |
| 2026-05-07 07:46 | 56.27840 | 84.24644 | 15958 ft | 424 kts | 71° |
| 2026-05-07 07:46 | 56.28685 | 84.29704 | 15424 ft | 420 kts | 71° |
| 2026-05-07 07:46 | 56.29503 | 84.34736 | 14874 ft | 417 kts | 71° |
| 2026-05-07 07:47 | 56.30304 | 84.39734 | 14325 ft | 414 kts | 72° |
| 2026-05-07 07:47 | 56.31092 | 84.44697 | 13733 ft | 411 kts | 72° |
| 2026-05-07 07:47 | 56.31879 | 84.49673 | 13109 ft | 406 kts | 72° |
| 2026-05-07 07:47 | 56.32641 | 84.54491 | 12508 ft | 402 kts | 72° |
| 2026-05-07 07:48 | 56.33407 | 84.59346 | 11874 ft | 395 kts | 72° |
| 2026-05-07 07:48 | 56.34143 | 84.64030 | 11250 ft | 390 kts | 72° |
| 2026-05-07 07:48 | 56.34873 | 84.68687 | 10805 ft | 369 kts | 72° |
| 2026-05-07 07:48 | 56.35540 | 84.72961 | 10653 ft | 340 kts | 72° |
| 2026-05-07 07:49 | 56.36154 | 84.76916 | 10515 ft | 316 kts | 71° |
| 2026-05-07 07:49 | 56.36731 | 84.80640 | 10220 ft | 302 kts | 71° |
| 2026-05-07 07:49 | 56.37295 | 84.84260 | 9990 ft | 299 kts | 71° |
| 2026-05-07 07:49 | 56.37958 | 84.87778 | 9874 ft | 294 kts | 62° |
| 2026-05-07 07:50 | 56.38984 | 84.90929 | 9738 ft | 290 kts | 50° |
| 2026-05-07 07:50 | 56.40320 | 84.93616 | 9609 ft | 286 kts | 39° |
| 2026-05-07 07:50 | 56.41799 | 84.96019 | 9475 ft | 286 kts | 39° |
| 2026-05-07 07:50 | 56.43273 | 84.98418 | 9340 ft | 285 kts | 39° |
| 2026-05-07 07:51 | 56.44750 | 85.00823 | 8977 ft | 287 kts | 39° |
| 2026-05-07 07:51 | 56.46239 | 85.03244 | 8548 ft | 285 kts | 39° |
| 2026-05-07 07:51 | 56.47704 | 85.05630 | 7962 ft | 282 kts | 39° |
| 2026-05-07 07:51 | 56.49148 | 85.07989 | 7429 ft | 278 kts | 39° |
| 2026-05-07 07:52 | 56.50575 | 85.10328 | 6918 ft | 276 kts | 39° |
| 2026-05-07 07:52 | 56.51999 | 85.12665 | 6412 ft | 275 kts | 40° |
| 2026-05-07 07:52 | 56.53407 | 85.14977 | 5879 ft | 273 kts | 40° |
| 2026-05-07 07:52 | 56.54829 | 85.17310 | 5363 ft | 276 kts | 40° |
| 2026-05-07 07:53 | 56.56242 | 85.19641 | 4861 ft | 274 kts | 42° |
| 2026-05-07 07:53 | 56.57325 | 85.22440 | 4407 ft | 267 kts | 70° |
| 2026-05-07 07:53 | 56.57590 | 85.25598 | 4334 ft | 244 kts | 96° |
| 2026-05-07 07:53 | 56.57159 | 85.28466 | 4272 ft | 234 kts | 120° |
| 2026-05-07 07:54 | 56.56270 | 85.30980 | 4167 ft | 233 kts | 126° |
| 2026-05-07 07:54 | 56.55376 | 85.33417 | 4048 ft | 232 kts | 126° |
| 2026-05-07 07:54 | 56.54481 | 85.35808 | 3956 ft | 231 kts | 133° |
| 2026-05-07 07:54 | 56.53204 | 85.37340 | 3814 ft | 220 kts | 172° |
| 2026-05-07 07:55 | 56.51713 | 85.37032 | 3532 ft | 222 kts | 212° |
| 2026-05-07 07:55 | 56.50399 | 85.35503 | 3220 ft | 227 kts | 216° |
| 2026-05-07 07:55 | 56.49090 | 85.33908 | 2905 ft | 224 kts | 215° |
| 2026-05-07 07:55 | 56.47805 | 85.32366 | 2631 ft | 220 kts | 214° |
| 2026-05-07 07:56 | 56.46554 | 85.30871 | 2359 ft | 212 kts | 214° |
| 2026-05-07 07:56 | 56.45348 | 85.29432 | 2085 ft | 201 kts | 214° |
| 2026-05-07 07:56 | 56.44212 | 85.28078 | 1837 ft | 189 kts | 216° |
| 2026-05-07 07:56 | 56.43168 | 85.26835 | 1611 ft | 171 kts | 215° |
| 2026-05-07 07:57 | 56.42192 | 85.25672 | 1351 ft | 163 kts | 215° |
| 2026-05-07 07:57 | 56.41284 | 85.24591 | 1126 ft | 151 kts | 215° |
| 2026-05-07 07:57 | 56.40422 | 85.23564 | 939 ft | 147 kts | 215° |
| 2026-05-07 07:57 | 56.39566 | 85.22539 | 737 ft | 147 kts | 215° |
| 2026-05-07 07:58 | 56.38720 | 85.21528 | 573 ft | 139 kts | 217° |
| 2026-05-07 07:58 | 56.38051 | 85.20737 | 573 ft | 77 kts | 213° |
| 2026-05-07 07:58 | 56.37815 | 85.20459 | 571 ft | 20 kts | 213° |
| 2026-05-07 07:58 | 56.37815 | 85.20244 | 568 ft | 22 kts | 301° |
| 2026-05-07 07:59 | 56.37900 | 85.20145 | 568 ft | 13 kts | 39° |
| 2026-05-07 07:59 | 56.37992 | 85.20248 | 574 ft | 19 kts | 34° |
| 2026-05-07 07:59 | 56.38117 | 85.20396 | 569 ft | 24 kts | 35° |
| 2026-05-07 07:59 | 56.38272 | 85.20582 | 572 ft | 29 kts | 34° |
| 2026-05-07 08:00 | 56.38457 | 85.20801 | 568 ft | 34 kts | 33° |
| 2026-05-07 08:00 | 56.38668 | 85.21052 | 570 ft | 37 kts | 33° |
| 2026-05-07 08:00 | 56.38830 | 85.21239 | 573 ft | 14 kts | 17° |
| 2026-05-07 08:00 | 56.38888 | 85.21160 | 571 ft | 0 kts | 303° |